Airfield :
LOGIN :

Register | Disclaimer

   EN    FR    IT 

 










Legend :    VFR   Marginal VFR   IFR   Intensive IFR   Very Intensive IFR
Visi :
Ceiling :
>= 8 km
>= 3000ft
5 to 8 km
1000 to 3000 ft
1500m to 5 km
500 to 1000 ft
800 to 1500m
200 to 500 ft
< 800m
< 200 ft
Symbols :   Thunderstorms  Fog  Heavy snow  Heavy precipitations  Wind > 20 kt
SIGMETs :     Misc.  Thunderstorms  Icing  Turbulence  Mountain Waves  Volcanic Ashes







- Airport Elevation : 82 ft
- IATA code : AAR


EKAH - Aarhus Tirstrup

CURRENT METAR :
  • 270320Z AUTO 29014KT 9999NDV FEW015/// 12/10 Q1021

EXPIRED METARs :
  • 270250Z AUTO 28016KT 9999NDV FEW016/// 12/10 Q1021
  • 270220Z AUTO 28013KT 9999NDV SCT014/// 11/10 Q1021
  • 270150Z AUTO 29013KT 9999NDV BKN014/// 11/10 Q1021
  • 270120Z AUTO 29015KT 9999NDV BKN014/// 11/10 Q1021
  • 270050Z AUTO 28017KT 9999NDV NCD 11/10 Q1021

TAF TAF EKAH
Valid from the 27 at 00:00 until the 28 at 00:00 UTC


262311Z 2700/2724 30015KT 9999 SCT015
No reported NOTAMs for that airfield.



MET'MAP, your aeronautical weather chart ! - Copyright ORBIFLY December 2007 - Disclaimer

ORBIFLY MET'MAP TEAM :

Programming & Development : Alexandra Zaïnal
Concept & Development : Baudouin d'Aumeries
Co-Development & Prog : Marc-Olivier Méhu
Technical & hardware support : Manuel Goepfert

Contact : metmap@orbifly.com




SOURCES & CREDITS :

   NOAA